createdAt,value
2022-09-04T00:00:28.462Z,93.84
2022-09-04T00:01:45.438Z,94.05
2022-09-04T00:02:57.302Z,94.36
2022-09-04T00:04:10.407Z,94.74
2022-09-04T00:05:22.852Z,94.62
2022-09-04T00:06:23.915Z,94.63
2022-09-04T00:07:26.374Z,94.79
2022-09-04T00:08:38.169Z,94.39
2022-09-04T00:10:01.821Z,94.02
2022-09-04T00:11:07.115Z,93.88
2022-09-04T00:12:06.154Z,93.72
2022-09-04T00:13:11.095Z,93.32
2022-09-04T00:14:40.188Z,92.92
2022-09-04T00:15:44.091Z,91.83
2022-09-04T00:16:58.451Z,92.11
2022-09-04T00:18:02.953Z,92.10
2022-09-04T00:19:37.082Z,92.03
2022-09-04T00:20:45.804Z,92.55
2022-09-04T00:21:53.030Z,93.17
2022-09-04T00:23:01.794Z,93.63
2022-09-04T00:24:02.791Z,93.86
2022-09-04T00:25:24.041Z,94.34
2022-09-04T00:26:42.504Z,94.57
2022-09-04T00:27:45.323Z,94.59
2022-09-04T00:28:45.439Z,94.44
2022-09-04T00:30:04.613Z,94.62
2022-09-04T00:31:25.884Z,94.50
2022-09-04T00:32:38.677Z,94.59
2022-09-04T00:34:07.347Z,94.50
2022-09-04T00:35:31.493Z,94.43
2022-09-04T00:36:29.505Z,94.66
2022-09-04T00:37:32.812Z,94.58
2022-09-04T00:38:41.173Z,94.73
2022-09-04T00:39:50.691Z,94.48
2022-09-04T00:40:57.341Z,94.88
2022-09-04T00:42:18.832Z,94.72
2022-09-04T00:43:57.454Z,94.69
2022-09-04T00:45:27.792Z,94.86
2022-09-04T00:47:02.172Z,95.09
2022-09-04T00:48:38.283Z,95.36
2022-09-04T00:50:09.522Z,94.90
2022-09-04T00:51:35.920Z,94.81
2022-09-04T00:52:38.569Z,94.77
2022-09-04T00:53:55.895Z,94.42
2022-09-04T00:54:58.435Z,93.84
2022-09-04T00:55:58.832Z,93.56
2022-09-04T00:57:03.757Z,92.97
2022-09-04T00:58:24.148Z,92.44
2022-09-04T00:59:20.852Z,92.27
2022-09-04T01:00:19.732Z,92.00
2022-09-04T01:01:23.591Z,92.09
2022-09-04T01:02:43.753Z,92.41
2022-09-04T01:03:51.072Z,92.63
2022-09-04T01:05:21.245Z,92.99
2022-09-04T01:06:51.837Z,93.12
2022-09-04T01:07:48.467Z,93.24
2022-09-04T01:08:47.952Z,93.40
2022-09-04T01:10:09.065Z,93.93
2022-09-04T01:11:27.808Z,93.90
2022-09-04T01:12:49.080Z,93.83
2022-09-04T01:13:51.443Z,94.04
2022-09-04T01:15:03.448Z,94.01
2022-09-04T01:16:14.018Z,93.49
2022-09-04T01:17:37.443Z,93.41
2022-09-04T01:19:00.160Z,93.87
2022-09-04T01:20:14.843Z,93.97
2022-09-04T01:21:33.273Z,93.83
2022-09-04T01:23:03.633Z,93.99
2022-09-04T01:24:19.378Z,94.38
2022-09-04T01:25:31.133Z,94.44
2022-09-04T01:26:55.409Z,94.63
2022-09-04T01:28:16.944Z,94.19
2022-09-04T01:29:33.783Z,94.00
2022-09-04T01:30:43.591Z,93.87
2022-09-04T01:31:55.827Z,94.01
2022-09-04T01:33:30.219Z,94.03
2022-09-04T01:34:49.709Z,94.06
2022-09-04T01:35:58.304Z,94.21
2022-09-04T01:37:35.774Z,94.61
2022-09-04T01:38:51.075Z,94.62
2022-09-04T01:40:03.701Z,94.80
2022-09-04T01:41:15.708Z,94.92
2022-09-04T01:42:15.042Z,95.21
2022-09-04T01:43:21.330Z,95.24
2022-09-04T01:44:18.041Z,94.72
2022-09-04T01:45:28.300Z,94.63
2022-09-04T01:46:31.377Z,94.74
2022-09-04T01:47:46.927Z,94.55
2022-09-04T01:48:43.619Z,94.47
2022-09-04T01:49:49.782Z,94.35
2022-09-04T01:50:51.931Z,94.16
2022-09-04T01:51:57.944Z,94.63
2022-09-04T01:53:06.587Z,94.74
2022-09-04T01:54:37.808Z,94.84
2022-09-04T01:55:44.846Z,94.47
2022-09-04T01:56:48.468Z,94.46
2022-09-04T01:58:03.524Z,94.59
2022-09-04T01:59:20.176Z,94.81
2022-09-04T02:00:20.142Z,94.86
2022-09-04T02:01:21.121Z,95.61
2022-09-04T02:02:44.207Z,95.51
2022-09-04T02:03:56.190Z,95.78
2022-09-04T02:05:09.276Z,95.79
2022-09-04T02:06:18.012Z,95.65
2022-09-04T02:07:32.515Z,95.50
2022-09-04T02:08:59.562Z,95.05
2022-09-04T02:10:27.157Z,94.86
2022-09-04T02:11:28.466Z,94.56
2022-09-04T02:12:42.520Z,94.14
2022-09-04T02:13:40.406Z,94.02
2022-09-04T02:15:01.139Z,93.47
2022-09-04T02:16:06.745Z,93.57
2022-09-04T02:17:12.886Z,93.59
2022-09-04T02:18:24.631Z,93.89
2022-09-04T02:19:35.321Z,94.08
2022-09-04T02:20:32.012Z,94.26
2022-09-04T02:21:37.042Z,94.24
2022-09-04T02:22:42.143Z,94.79
2022-09-04T02:23:52.624Z,94.79
2022-09-04T02:24:49.254Z,95.08
2022-09-04T02:25:53.536Z,95.24
2022-09-04T02:26:57.145Z,95.27
2022-09-04T02:28:20.632Z,95.34
2022-09-04T02:29:48.885Z,95.47
2022-09-04T02:30:56.541Z,95.61
2022-09-04T02:32:00.640Z,95.86
2022-09-04T02:33:18.948Z,95.78
2022-09-04T02:34:29.414Z,95.90
2022-09-04T02:35:47.873Z,95.93
2022-09-04T02:37:00.421Z,96.18
2022-09-04T02:38:17.088Z,96.55
2022-09-04T02:39:22.286Z,97.04
2022-09-04T02:40:27.683Z,97.27
2022-09-04T02:41:39.836Z,97.78
2022-09-04T02:43:02.517Z,98.02
2022-09-04T02:44:47.628Z,98.18
2022-09-04T02:46:02.729Z,98.53
2022-09-04T02:47:22.877Z,98.67
2022-09-04T02:48:35.129Z,98.73
2022-09-04T02:50:07.856Z,98.94
2022-09-04T02:51:49.006Z,98.76
2022-09-04T02:53:04.442Z,99.17
2022-09-04T02:54:25.352Z,99.11
2022-09-04T02:55:44.536Z,99.15
2022-09-04T02:57:01.807Z,99.20
2022-09-04T02:58:07.878Z,99.21
2022-09-04T02:59:42.294Z,99.11
2022-09-04T03:00:57.250Z,99.08
2022-09-04T03:01:59.386Z,98.82
2022-09-04T03:03:05.500Z,98.82
2022-09-04T03:04:19.275Z,98.85
2022-09-04T03:05:26.419Z,98.56
2022-09-04T03:06:45.453Z,98.45
2022-09-04T03:08:14.033Z,97.98
2022-09-04T03:09:16.675Z,97.66
2022-09-04T03:10:18.512Z,97.43
2022-09-04T03:11:21.076Z,97.41
2022-09-04T03:12:26.957Z,97.03
2022-09-04T03:13:28.259Z,96.88
2022-09-04T03:14:46.639Z,96.59
2022-09-04T03:16:10.979Z,96.03
2022-09-04T03:17:25.990Z,95.83
2022-09-04T03:18:41.065Z,95.98
2022-09-04T03:19:50.820Z,95.96
2022-09-04T03:21:12.382Z,96.37
2022-09-04T03:22:42.762Z,96.63
2022-09-04T03:23:51.886Z,96.59
2022-09-04T03:25:25.449Z,96.32
2022-09-04T03:26:29.850Z,96.33
2022-09-04T03:27:27.953Z,96.07
2022-09-04T03:28:31.161Z,96.44
2022-09-04T03:30:01.393Z,96.70
2022-09-04T03:31:02.362Z,97.08
2022-09-04T03:31:59.014Z,97.08
2022-09-04T03:33:19.329Z,97.08
2022-09-04T03:34:20.251Z,97.11
2022-09-04T03:35:29.600Z,97.08
2022-09-04T03:36:45.752Z,96.88
2022-09-04T03:38:08.752Z,97.05
2022-09-04T03:39:11.206Z,97.25
2022-09-04T03:40:35.827Z,97.16
2022-09-04T03:41:50.191Z,97.42
2022-09-04T03:42:49.702Z,97.84
2022-09-04T03:44:13.094Z,97.89
2022-09-04T03:45:40.509Z,98.12
2022-09-04T03:46:50.252Z,98.07
2022-09-04T03:48:07.146Z,97.74
2022-09-04T03:49:16.923Z,97.89
2022-09-04T03:50:43.283Z,97.98
2022-09-04T03:52:05.722Z,97.73
2022-09-04T03:53:38.149Z,97.68
2022-09-04T03:55:12.933Z,97.33
2022-09-04T03:56:33.843Z,96.36
2022-09-04T03:57:30.407Z,96.06
2022-09-04T03:58:39.778Z,96.05
2022-09-04T03:59:48.634Z,96.59
2022-09-04T04:01:09.952Z,96.38
2022-09-04T04:02:23.823Z,96.39
2022-09-04T04:03:27.050Z,96.18
2022-09-04T04:04:35.331Z,96.31
2022-09-04T04:05:38.856Z,96.05
2022-09-04T04:06:56.656Z,96.02
2022-09-04T04:07:59.022Z,96.31
2022-09-04T04:09:20.477Z,96.65
2022-09-04T04:10:25.472Z,96.34
2022-09-04T04:11:41.356Z,96.24
2022-09-04T04:12:49.954Z,96.11
2022-09-04T04:14:07.850Z,95.98
2022-09-04T04:15:13.624Z,96.04
2022-09-04T04:16:24.783Z,95.95
2022-09-04T04:17:28.212Z,96.05
2022-09-04T04:18:49.738Z,95.96
2022-09-04T04:20:07.518Z,95.72
2022-09-04T04:21:27.734Z,95.89
2022-09-04T04:22:47.493Z,96.42
2022-09-04T04:24:12.500Z,96.43
2022-09-04T04:25:27.115Z,96.43
2022-09-04T04:26:54.041Z,96.65
2022-09-04T04:28:28.928Z,96.66
2022-09-04T04:29:39.788Z,96.59
2022-09-04T04:30:47.415Z,96.78
2022-09-04T04:31:44.695Z,96.66
2022-09-04T04:32:50.306Z,96.63
2022-09-04T04:33:51.752Z,96.27
2022-09-04T04:35:03.708Z,96.16
2022-09-04T04:36:06.499Z,95.85
2022-09-04T04:37:11.534Z,95.54
2022-09-04T04:38:34.808Z,94.68
2022-09-04T04:40:00.596Z,94.70
2022-09-04T04:40:57.251Z,94.48
2022-09-04T04:42:23.059Z,94.78
2022-09-04T04:43:31.288Z,95.09
2022-09-04T04:45:07.841Z,94.96
2022-09-04T04:46:22.703Z,94.95
2022-09-04T04:47:37.929Z,95.05
2022-09-04T04:49:00.169Z,95.02
2022-09-04T04:50:19.385Z,95.00
2022-09-04T04:51:40.784Z,94.87
2022-09-04T04:52:52.409Z,94.67
2022-09-04T04:54:14.787Z,94.55
2022-09-04T04:55:21.468Z,93.25
2022-09-04T04:56:26.487Z,92.29
2022-09-04T04:57:46.273Z,92.17
2022-09-04T04:59:03.363Z,92.45
2022-09-04T05:00:16.202Z,92.42
2022-09-04T05:01:28.150Z,92.50
2022-09-04T05:02:31.611Z,92.40
2022-09-04T05:03:47.896Z,92.45
2022-09-04T05:05:15.343Z,92.45
2022-09-04T05:06:30.266Z,91.85
2022-09-04T05:07:48.697Z,91.45
2022-09-04T05:08:50.034Z,91.49
2022-09-04T05:10:29.094Z,91.38
2022-09-04T05:11:56.220Z,90.41
2022-09-04T05:13:26.841Z,90.33
2022-09-04T05:15:09.916Z,90.18
2022-09-04T05:16:18.092Z,90.34
2022-09-04T05:17:18.739Z,90.49
2022-09-04T05:18:43.595Z,89.82
2022-09-04T05:19:50.207Z,89.75
2022-09-04T05:21:19.441Z,89.55
2022-09-04T05:22:23.396Z,89.42
2022-09-04T05:23:39.681Z,88.68
2022-09-04T05:24:55.753Z,88.21
2022-09-04T05:26:19.015Z,87.83
2022-09-04T05:27:33.584Z,86.95
2022-09-04T05:28:46.113Z,86.53
2022-09-04T05:30:07.373Z,86.62
2022-09-04T05:31:19.322Z,86.58
2022-09-04T05:32:28.717Z,86.84
2022-09-04T05:33:58.615Z,86.70
2022-09-04T05:35:17.782Z,86.62
2022-09-04T05:36:24.448Z,86.06
2022-09-04T05:37:42.956Z,85.62
2022-09-04T05:38:57.634Z,85.72
2022-09-04T05:40:21.799Z,85.64
2022-09-04T05:41:52.146Z,85.63
2022-09-04T05:43:00.949Z,84.95
2022-09-04T05:44:31.478Z,85.36
2022-09-04T05:45:37.479Z,85.44
2022-09-04T05:46:55.443Z,85.34
2022-09-04T05:48:10.654Z,85.68
2022-09-04T05:49:24.653Z,85.14
2022-09-04T05:50:49.079Z,85.88
2022-09-04T05:51:45.647Z,86.38
2022-09-04T05:52:48.226Z,86.55
2022-09-04T05:54:01.934Z,86.76
2022-09-04T05:55:16.883Z,85.36
2022-09-04T05:56:38.715Z,84.71
2022-09-04T05:58:12.515Z,84.80
2022-09-04T05:59:09.147Z,85.38
2022-09-04T06:00:18.357Z,85.84
2022-09-04T06:01:39.257Z,85.61
2022-09-04T06:03:30.082Z,85.77
2022-09-04T06:04:38.488Z,84.42
2022-09-04T06:06:12.675Z,84.19
2022-09-04T06:07:27.753Z,83.00
2022-09-04T06:08:43.329Z,84.01
2022-09-04T06:09:40.548Z,84.41
2022-09-04T06:10:46.951Z,84.26
2022-09-04T06:11:51.518Z,83.91
2022-09-04T06:12:57.821Z,83.80
2022-09-04T06:13:54.382Z,84.14
2022-09-04T06:15:07.742Z,84.56
2022-09-04T06:16:16.532Z,84.37
2022-09-04T06:17:30.859Z,84.07
2022-09-04T06:18:43.369Z,84.20
2022-09-04T06:20:01.778Z,84.48
2022-09-04T06:21:20.238Z,83.85
2022-09-04T06:22:43.524Z,83.14
2022-09-04T06:24:15.524Z,82.76
2022-09-04T06:25:22.467Z,83.90
2022-09-04T06:26:35.255Z,82.88
2022-09-04T06:27:52.705Z,82.64
2022-09-04T06:29:00.479Z,81.68
2022-09-04T06:30:14.546Z,82.47
2022-09-04T06:31:29.550Z,82.29
2022-09-04T06:32:45.370Z,82.69
2022-09-04T06:34:10.677Z,80.83
2022-09-04T06:35:39.515Z,80.83
2022-09-04T06:37:05.503Z,80.85
2022-09-04T06:38:29.708Z,80.98
2022-09-04T06:39:35.368Z,80.75
2022-09-04T06:40:46.803Z,82.19
2022-09-04T06:42:19.561Z,82.24
2022-09-04T06:43:43.342Z,80.17
2022-09-04T06:45:15.083Z,79.33
2022-09-04T06:46:28.291Z,78.98
2022-09-04T06:47:46.564Z,80.17
2022-09-04T06:49:37.611Z,81.83
2022-09-04T06:50:49.091Z,79.42
2022-09-04T06:52:07.589Z,78.70
2022-09-04T06:53:18.219Z,79.05
2022-09-04T06:54:26.769Z,79.56
2022-09-04T06:55:42.617Z,79.78
2022-09-04T06:56:55.917Z,80.63
2022-09-04T06:58:15.909Z,80.88
2022-09-04T06:59:24.603Z,78.89
2022-09-04T07:00:21.897Z,79.60
2022-09-04T07:01:46.895Z,80.05
2022-09-04T07:03:25.395Z,79.00
2022-09-04T07:04:30.629Z,79.23
2022-09-04T07:05:35.704Z,77.97
2022-09-04T07:06:44.591Z,77.92
2022-09-04T07:08:05.911Z,77.92
2022-09-04T07:09:21.168Z,78.22
2022-09-04T07:10:45.748Z,78.39
2022-09-04T07:12:05.732Z,77.87
2022-09-04T07:13:23.548Z,77.41
2022-09-04T07:14:49.908Z,76.87
2022-09-04T07:15:50.202Z,76.85
2022-09-04T07:17:08.673Z,76.87
2022-09-04T07:18:42.708Z,76.62
2022-09-04T07:19:56.243Z,75.99
2022-09-04T07:21:05.235Z,77.15
2022-09-04T07:22:23.145Z,76.38
2022-09-04T07:23:36.008Z,77.79
2022-09-04T07:25:01.629Z,77.75
2022-09-04T07:26:30.073Z,75.74
2022-09-04T07:27:58.011Z,74.10
2022-09-04T07:29:09.910Z,75.21
2022-09-04T07:30:15.473Z,74.64
2022-09-04T07:31:28.865Z,74.98
2022-09-04T07:32:49.464Z,73.31
2022-09-04T07:34:27.908Z,74.95
2022-09-04T07:35:37.024Z,75.03
2022-09-04T07:36:48.625Z,73.79
2022-09-04T07:38:08.010Z,72.52
2022-09-04T07:39:58.759Z,73.74
2022-09-04T07:41:20.052Z,73.43
2022-09-04T07:42:39.005Z,73.58
2022-09-04T07:43:55.395Z,74.07
2022-09-04T07:45:00.753Z,74.47
2022-09-04T07:46:40.582Z,72.35
2022-09-04T07:47:46.096Z,73.12
2022-09-04T07:49:04.371Z,72.77
2022-09-04T07:50:12.983Z,72.10
2022-09-04T07:51:26.019Z,70.91
2022-09-04T07:52:22.883Z,71.27
2022-09-04T07:53:27.828Z,70.68
2022-09-04T07:54:48.925Z,72.50
2022-09-04T07:55:48.445Z,71.92
2022-09-04T07:56:54.604Z,69.45
2022-09-04T07:58:07.894Z,70.64
2022-09-04T07:59:27.071Z,70.66
2022-09-04T08:00:25.480Z,70.35
2022-09-04T08:01:40.701Z,70.49
2022-09-04T08:02:43.585Z,69.90
2022-09-04T08:04:03.301Z,69.21
2022-09-04T08:05:21.302Z,67.58
2022-09-04T08:06:27.573Z,68.54
2022-09-04T08:08:03.840Z,68.59
2022-09-04T08:09:33.645Z,68.02
2022-09-04T08:10:42.385Z,66.92
2022-09-04T08:12:02.088Z,67.17
2022-09-04T08:13:02.322Z,65.49
2022-09-04T08:14:11.296Z,66.49
2022-09-04T08:15:27.111Z,68.13
2022-09-04T08:16:34.360Z,67.70
2022-09-04T08:17:54.427Z,68.47
2022-09-04T08:19:15.946Z,65.41
2022-09-04T08:20:19.056Z,65.22
2022-09-04T08:21:35.781Z,66.73
2022-09-04T08:22:54.128Z,65.09
2022-09-04T08:24:15.460Z,67.10
2022-09-04T08:25:39.871Z,68.57
2022-09-04T08:26:42.249Z,67.13
2022-09-04T08:28:17.593Z,67.93
2022-09-04T08:29:40.225Z,69.47
2022-09-04T08:31:03.944Z,68.02
2022-09-04T08:32:04.452Z,67.13
2022-09-04T08:33:44.817Z,67.82
2022-09-04T08:35:11.882Z,66.81
2022-09-04T08:36:16.630Z,65.40
2022-09-04T08:37:27.267Z,66.73
2022-09-04T08:38:36.771Z,65.58
2022-09-04T08:39:57.712Z,65.39
2022-09-04T08:41:31.613Z,64.47
2022-09-04T08:42:49.417Z,67.15
2022-09-04T08:44:14.017Z,64.74
2022-09-04T08:45:42.191Z,66.45
2022-09-04T08:46:58.324Z,64.01
2022-09-04T08:48:24.516Z,64.48
2022-09-04T08:49:47.048Z,66.27
2022-09-04T08:51:29.304Z,66.11
2022-09-04T08:52:53.669Z,66.34
2022-09-04T08:54:40.730Z,65.04
2022-09-04T08:56:06.427Z,65.53
2022-09-04T08:57:37.633Z,64.48
2022-09-04T08:58:47.745Z,63.25
2022-09-04T08:59:56.753Z,63.27
2022-09-04T09:00:55.352Z,64.69
2022-09-04T09:02:10.094Z,65.39
2022-09-04T09:03:48.123Z,65.24
2022-09-04T09:04:47.857Z,63.33
2022-09-04T09:06:25.686Z,63.07
2022-09-04T09:07:46.727Z,64.09
2022-09-04T09:09:19.923Z,63.67
2022-09-04T09:10:45.403Z,64.26
2022-09-04T09:12:09.427Z,63.96
2022-09-04T09:13:21.133Z,62.80
2022-09-04T09:15:02.108Z,61.45
2022-09-04T09:16:22.363Z,61.23
2022-09-04T09:17:57.906Z,61.87
2022-09-04T09:19:23.254Z,62.20
2022-09-04T09:20:25.707Z,59.63
2022-09-04T09:21:42.399Z,60.63
2022-09-04T09:22:51.229Z,62.25
2022-09-04T09:24:00.499Z,62.25
2022-09-04T09:25:12.340Z,62.53
2022-09-04T09:26:24.504Z,62.00
2022-09-04T09:27:56.059Z,61.23
2022-09-04T09:29:01.548Z,63.27
2022-09-04T09:30:13.033Z,60.84
2022-09-04T09:31:13.009Z,59.88
2022-09-04T09:32:18.896Z,58.42
2022-09-04T09:33:48.330Z,60.40
2022-09-04T09:35:03.520Z,60.94
2022-09-04T09:36:20.245Z,59.13
2022-09-04T09:37:47.469Z,61.88
2022-09-04T09:39:02.493Z,59.76
2022-09-04T09:40:31.919Z,57.89
2022-09-04T09:42:05.819Z,55.87
2022-09-04T09:43:12.889Z,58.16
2022-09-04T09:44:15.756Z,58.57
2022-09-04T09:45:36.113Z,60.35
2022-09-04T09:46:54.273Z,58.24
2022-09-04T09:47:56.670Z,57.47
2022-09-04T09:49:14.773Z,57.93
2022-09-04T09:50:42.643Z,56.25
2022-09-04T09:51:45.350Z,56.72
2022-09-04T09:53:12.506Z,56.55
2022-09-04T09:54:14.799Z,58.12
2022-09-04T09:55:29.293Z,57.91
2022-09-04T09:56:25.898Z,57.27
2022-09-04T09:57:44.089Z,55.92
2022-09-04T09:59:14.760Z,55.91
2022-09-04T10:00:15.589Z,54.88
2022-09-04T10:01:24.777Z,53.22
2022-09-04T10:02:46.399Z,54.94
2022-09-04T10:03:49.100Z,55.05
2022-09-04T10:05:00.017Z,55.05
2022-09-04T10:06:11.723Z,54.90
2022-09-04T10:07:27.230Z,55.06
2022-09-04T10:08:45.420Z,54.53
2022-09-04T10:10:04.678Z,53.35
2022-09-04T10:11:29.268Z,53.39
2022-09-04T10:12:56.514Z,54.89
2022-09-04T10:14:29.440Z,53.06
2022-09-04T10:15:39.083Z,53.01
2022-09-04T10:16:48.073Z,52.63
2022-09-04T10:18:01.030Z,52.59
2022-09-04T10:19:19.041Z,54.57
2022-09-04T10:20:40.430Z,53.64
2022-09-04T10:22:02.163Z,51.70
2022-09-04T10:23:26.613Z,53.01
2022-09-04T10:24:38.207Z,54.27
2022-09-04T10:25:37.681Z,53.06
2022-09-04T10:27:02.278Z,53.89
2022-09-04T10:28:35.486Z,54.78
2022-09-04T10:29:59.543Z,53.65
2022-09-04T10:31:27.043Z,52.42
2022-09-04T10:32:33.037Z,54.13
2022-09-04T10:33:47.838Z,52.19
2022-09-04T10:35:03.293Z,53.22
2022-09-04T10:36:27.912Z,51.30
2022-09-04T10:37:33.504Z,52.30
2022-09-04T10:39:01.117Z,50.83
2022-09-04T10:40:29.562Z,50.52
2022-09-04T10:41:47.752Z,50.90
2022-09-04T10:42:47.211Z,50.36
2022-09-04T10:44:01.655Z,50.17
2022-09-04T10:45:06.733Z,49.67
2022-09-04T10:46:26.255Z,48.32
2022-09-04T10:47:28.086Z,49.48
2022-09-04T10:48:58.839Z,49.83
2022-09-04T10:50:13.519Z,49.63
2022-09-04T10:51:34.702Z,50.64
2022-09-04T10:53:10.946Z,49.40
2022-09-04T10:54:16.951Z,50.52
2022-09-04T10:55:37.832Z,48.05
2022-09-04T10:56:57.516Z,50.96
2022-09-04T10:58:29.200Z,51.69
2022-09-04T11:00:00.848Z,51.18
2022-09-04T11:01:19.077Z,50.00
2022-09-04T11:02:37.477Z,50.18
2022-09-04T11:03:38.273Z,48.05
2022-09-04T11:05:03.409Z,48.03
2022-09-04T11:06:15.687Z,47.84
2022-09-04T11:07:23.667Z,49.70
2022-09-04T11:08:36.492Z,50.13
2022-09-04T11:10:05.520Z,47.76
2022-09-04T11:11:20.673Z,46.56
2022-09-04T11:12:28.878Z,49.23
2022-09-04T11:14:06.500Z,49.84
2022-09-04T11:15:15.497Z,48.24
2022-09-04T11:16:21.224Z,49.53
2022-09-04T11:17:55.750Z,47.22
2022-09-04T11:19:14.266Z,50.19
2022-09-04T11:20:49.147Z,47.81
2022-09-04T11:22:19.515Z,50.82
2022-09-04T11:23:34.587Z,49.69
2022-09-04T11:25:00.094Z,49.30
2022-09-04T11:26:10.202Z,49.93
2022-09-04T11:27:20.379Z,47.09
2022-09-04T11:28:51.756Z,45.55
2022-09-04T11:30:02.314Z,48.07
2022-09-04T11:31:13.306Z,47.52
2022-09-04T11:32:42.668Z,50.18
2022-09-04T11:33:57.748Z,46.32
2022-09-04T11:35:32.226Z,45.77
2022-09-04T11:36:53.414Z,46.90
2022-09-04T11:37:57.808Z,43.86
2022-09-04T11:38:54.774Z,44.56
2022-09-04T11:40:18.297Z,46.63
2022-09-04T11:41:43.366Z,47.68
2022-09-04T11:43:18.690Z,46.16
2022-09-04T11:45:07.563Z,44.01
2022-09-04T11:46:33.631Z,42.64
2022-09-04T11:47:56.848Z,44.42
2022-09-04T11:49:05.268Z,42.63
2022-09-04T11:50:35.225Z,42.29
2022-09-04T11:52:02.291Z,41.72
2022-09-04T11:53:20.192Z,43.28
2022-09-04T11:54:24.133Z,43.71
2022-09-04T11:55:48.314Z,44.38
2022-09-04T11:57:07.234Z,44.58
2022-09-04T11:58:20.796Z,42.34
2022-09-04T11:59:38.506Z,42.42
2022-09-04T12:01:00.460Z,42.03
2022-09-04T12:02:34.585Z,42.70
2022-09-04T12:03:39.156Z,44.36
2022-09-04T12:05:19.192Z,41.21
2022-09-04T12:06:44.038Z,41.33
2022-09-04T12:08:25.153Z,42.14
2022-09-04T12:09:30.884Z,40.82
2022-09-04T12:11:02.949Z,38.81
2022-09-04T12:12:31.562Z,42.16
2022-09-04T12:13:47.214Z,41.10
2022-09-04T12:14:58.529Z,42.31
2022-09-04T12:16:28.132Z,42.12
2022-09-04T12:17:50.178Z,41.74
2022-09-04T12:19:02.112Z,45.07
2022-09-04T12:20:24.161Z,42.07
2022-09-04T12:21:58.294Z,39.68
2022-09-04T12:23:12.848Z,39.64
2022-09-04T12:24:46.742Z,40.29
2022-09-04T12:26:02.195Z,39.47
2022-09-04T12:27:12.874Z,39.37
2022-09-04T12:28:46.863Z,41.66
2022-09-04T12:29:58.663Z,44.84
2022-09-04T12:31:16.495Z,44.25
2022-09-04T12:32:15.844Z,44.94
2022-09-04T12:33:27.729Z,45.87
2022-09-04T12:34:54.564Z,46.06
2022-09-04T12:36:22.345Z,47.13
2022-09-04T12:37:19.960Z,48.09
2022-09-04T12:38:35.986Z,47.69
2022-09-04T12:39:53.169Z,47.49
2022-09-04T12:41:16.752Z,45.58
2022-09-04T12:42:36.425Z,48.39
2022-09-04T12:43:38.951Z,48.51
2022-09-04T12:44:51.383Z,49.33
2022-09-04T12:45:47.980Z,50.25
2022-09-04T12:46:50.432Z,49.65
2022-09-04T12:47:58.814Z,48.66
2022-09-04T12:49:10.719Z,49.47
2022-09-04T12:50:28.329Z,49.65
2022-09-04T12:51:35.960Z,50.88
2022-09-04T12:52:38.225Z,49.94
2022-09-04T12:53:52.900Z,51.74
2022-09-04T12:55:05.098Z,50.83
2022-09-04T12:56:30.383Z,49.20
2022-09-04T12:57:27.031Z,50.01
2022-09-04T12:59:07.517Z,51.92
2022-09-04T13:00:17.565Z,49.96
2022-09-04T13:01:45.081Z,47.54
2022-09-04T13:03:12.191Z,50.17
2022-09-04T13:04:31.327Z,50.58
2022-09-04T13:05:53.615Z,52.15
2022-09-04T13:06:59.464Z,49.56
2022-09-04T13:08:05.367Z,49.61
2022-09-04T13:09:23.843Z,49.82
2022-09-04T13:10:49.165Z,49.45
2022-09-04T13:12:15.741Z,50.18
2022-09-04T13:13:18.210Z,51.32
2022-09-04T13:14:17.814Z,51.97
2022-09-04T13:15:39.480Z,50.97
2022-09-04T13:16:57.245Z,51.36
2022-09-04T13:18:07.618Z,50.42
2022-09-04T13:19:04.223Z,50.69
2022-09-04T13:20:16.686Z,51.03
2022-09-04T13:21:27.477Z,50.01
2022-09-04T13:22:26.747Z,50.43
2022-09-04T13:23:26.884Z,50.52
2022-09-04T13:24:31.845Z,50.38
2022-09-04T13:25:50.835Z,51.61
2022-09-04T13:27:07.801Z,50.68
2022-09-04T13:28:35.937Z,51.64
2022-09-04T13:29:35.337Z,50.31
2022-09-04T13:30:35.354Z,50.79
2022-09-04T13:31:50.184Z,50.12
2022-09-04T13:33:10.237Z,51.85
2022-09-04T13:34:48.499Z,53.00
2022-09-04T13:35:59.281Z,51.41
2022-09-04T13:37:08.049Z,50.70
2022-09-04T13:38:04.701Z,52.17
2022-09-04T13:39:07.336Z,49.88
2022-09-04T13:40:26.411Z,49.17
2022-09-04T13:42:01.048Z,50.27
2022-09-04T13:43:40.590Z,51.89
2022-09-04T13:45:05.661Z,50.41
2022-09-04T13:46:14.997Z,50.93
2022-09-04T13:47:22.951Z,50.85
2022-09-04T13:48:52.248Z,50.95
2022-09-04T13:49:56.653Z,51.24
2022-09-04T13:50:57.999Z,51.20
2022-09-04T13:52:02.350Z,50.23
2022-09-04T13:53:18.558Z,51.01
2022-09-04T13:54:32.174Z,51.64
2022-09-04T13:55:39.230Z,51.12
2022-09-04T13:56:58.869Z,50.97
2022-09-04T13:58:01.625Z,52.96
2022-09-04T13:59:08.625Z,52.77
2022-09-04T14:00:08.955Z,52.08
2022-09-04T14:01:13.495Z,52.39
2022-09-04T14:02:14.721Z,53.48
2022-09-04T14:03:40.320Z,53.87
2022-09-04T14:04:48.918Z,52.69
2022-09-04T14:05:46.022Z,52.19
2022-09-04T14:06:44.528Z,50.74
2022-09-04T14:07:45.530Z,51.31
2022-09-04T14:08:44.806Z,51.96
2022-09-04T14:09:49.529Z,53.25
2022-09-04T14:10:52.005Z,52.92
2022-09-04T14:12:07.519Z,53.22
2022-09-04T14:13:13.237Z,52.85
2022-09-04T14:14:21.673Z,52.97
2022-09-04T14:15:28.506Z,52.58
2022-09-04T14:16:25.487Z,52.75
2022-09-04T14:17:29.689Z,53.41
2022-09-04T14:18:47.453Z,54.51
2022-09-04T14:20:12.262Z,55.40
2022-09-04T14:21:24.381Z,54.92
2022-09-04T14:22:52.146Z,55.03
2022-09-04T14:23:57.336Z,56.22
2022-09-04T14:25:11.563Z,56.14
2022-09-04T14:26:24.579Z,55.37
2022-09-04T14:27:27.289Z,55.35
2022-09-04T14:28:45.107Z,55.96
2022-09-04T14:30:10.182Z,55.15
2022-09-04T14:31:10.650Z,55.53
2022-09-04T14:32:41.225Z,56.44
2022-09-04T14:33:53.504Z,56.71
2022-09-04T14:35:02.971Z,56.68
2022-09-04T14:36:21.866Z,55.49
2022-09-04T14:37:48.456Z,55.18
2022-09-04T14:39:06.965Z,57.00
2022-09-04T14:40:34.322Z,56.21
2022-09-04T14:41:55.449Z,57.95
2022-09-04T14:42:58.477Z,55.63
2022-09-04T14:44:13.532Z,55.57
2022-09-04T14:45:33.484Z,55.79
2022-09-04T14:47:05.538Z,57.79
2022-09-04T14:48:12.235Z,57.98
2022-09-04T14:49:15.243Z,57.22
2022-09-04T14:50:15.426Z,57.30
2022-09-04T14:51:31.039Z,56.97
2022-09-04T14:52:39.933Z,56.74
2022-09-04T14:53:36.991Z,57.02
2022-09-04T14:54:39.466Z,56.81
2022-09-04T14:55:39.935Z,56.71
2022-09-04T14:56:53.173Z,55.74
2022-09-04T14:57:51.533Z,56.38
2022-09-04T14:59:07.186Z,56.62
2022-09-04T15:00:20.968Z,56.41
2022-09-04T15:01:25.846Z,55.84
2022-09-04T15:02:33.349Z,57.15
2022-09-04T15:03:56.367Z,57.83
2022-09-04T15:04:59.178Z,59.03
2022-09-04T15:06:01.892Z,59.19
2022-09-04T15:07:16.741Z,58.33
2022-09-04T15:08:40.155Z,58.47
2022-09-04T15:09:50.102Z,59.83
2022-09-04T15:10:54.345Z,59.70
2022-09-04T15:12:23.077Z,57.75
2022-09-04T15:13:28.853Z,58.55
2022-09-04T15:14:36.815Z,58.85
2022-09-04T15:15:40.361Z,59.57
2022-09-04T15:16:39.852Z,61.98
2022-09-04T15:17:46.940Z,62.38
2022-09-04T15:18:51.757Z,62.36
2022-09-04T15:19:55.510Z,61.36
2022-09-04T15:21:05.385Z,61.37
2022-09-04T15:22:27.146Z,62.20
2022-09-04T15:23:29.915Z,62.90
2022-09-04T15:24:35.557Z,63.00
2022-09-04T15:25:58.129Z,63.58
2022-09-04T15:27:20.169Z,64.34
2022-09-04T15:28:30.696Z,64.24
2022-09-04T15:29:49.452Z,64.20
2022-09-04T15:31:00.541Z,64.89
2022-09-04T15:32:03.956Z,63.65
2022-09-04T15:33:12.026Z,63.39
2022-09-04T15:34:20.847Z,64.16
2022-09-04T15:35:20.824Z,64.47
2022-09-04T15:36:22.749Z,65.04
2022-09-04T15:37:28.418Z,65.03
2022-09-04T15:38:28.089Z,64.63
2022-09-04T15:39:36.817Z,64.24
2022-09-04T15:40:59.613Z,64.80
2022-09-04T15:42:01.401Z,65.09
2022-09-04T15:43:16.381Z,64.65
2022-09-04T15:44:32.952Z,65.37
2022-09-04T15:45:42.857Z,65.54
2022-09-04T15:47:17.225Z,65.18
2022-09-04T15:48:16.436Z,65.64
2022-09-04T15:49:24.469Z,64.85
2022-09-04T15:50:26.609Z,65.96
2022-09-04T15:51:31.911Z,65.70
2022-09-04T15:52:43.147Z,65.83
2022-09-04T15:53:49.419Z,66.14
2022-09-04T15:54:45.978Z,66.32
2022-09-04T15:55:46.135Z,66.32
2022-09-04T15:56:46.686Z,67.02
2022-09-04T15:58:02.313Z,66.80
2022-09-04T15:59:27.766Z,65.55
2022-09-04T16:00:27.391Z,65.99
2022-09-04T16:01:29.983Z,66.03
2022-09-04T16:02:36.307Z,66.48
2022-09-04T16:04:12.607Z,66.85
2022-09-04T16:05:25.208Z,67.24
2022-09-04T16:06:31.768Z,66.86